sensor_id;sensor_type;location;lat;lon;timestamp;P1;durP1;ratioP1;P2;durP2;ratioP2
68583;SDS011;55557;49.220;11.150;2023-03-29T00:02:04;5.00;;;2.20;;
68583;SDS011;55557;49.220;11.150;2023-03-29T00:04:31;3.30;;;1.87;;
68583;SDS011;55557;49.220;11.150;2023-03-29T00:06:58;2.53;;;2.00;;
68583;SDS011;55557;49.220;11.150;2023-03-29T00:09:28;3.70;;;2.23;;
68583;SDS011;55557;49.220;11.150;2023-03-29T00:11:55;3.47;;;2.50;;
68583;SDS011;55557;49.220;11.150;2023-03-29T00:14:21;4.90;;;2.13;;
68583;SDS011;55557;49.220;11.150;2023-03-29T00:16:47;3.03;;;2.30;;
68583;SDS011;55557;49.220;11.150;2023-03-29T00:19:13;6.40;;;2.30;;
68583;SDS011;55557;49.220;11.150;2023-03-29T00:21:40;5.37;;;2.30;;
68583;SDS011;55557;49.220;11.150;2023-03-29T00:24:06;5.90;;;2.00;;
68583;SDS011;55557;49.220;11.150;2023-03-29T00:26:32;4.90;;;2.30;;
68583;SDS011;55557;49.220;11.150;2023-03-29T00:28:58;7.40;;;2.37;;
68583;SDS011;55557;49.220;11.150;2023-03-29T00:31:24;3.63;;;2.70;;
68583;SDS011;55557;49.220;11.150;2023-03-29T00:33:51;2.53;;;2.00;;
68583;SDS011;55557;49.220;11.150;2023-03-29T00:36:17;4.73;;;2.10;;
68583;SDS011;55557;49.220;11.150;2023-03-29T00:38:43;3.43;;;1.83;;
68583;SDS011;55557;49.220;11.150;2023-03-29T00:41:10;5.30;;;2.03;;
68583;SDS011;55557;49.220;11.150;2023-03-29T00:43:52;2.03;;;1.70;;
68583;SDS011;55557;49.220;11.150;2023-03-29T00:46:19;3.07;;;2.10;;
68583;SDS011;55557;49.220;11.150;2023-03-29T00:48:45;5.37;;;2.00;;
68583;SDS011;55557;49.220;11.150;2023-03-29T00:51:11;3.40;;;2.10;;
68583;SDS011;55557;49.220;11.150;2023-03-29T00:53:40;3.57;;;1.80;;
68583;SDS011;55557;49.220;11.150;2023-03-29T00:56:12;2.23;;;2.03;;
68583;SDS011;55557;49.220;11.150;2023-03-29T00:58:54;3.67;;;2.10;;
68583;SDS011;55557;49.220;11.150;2023-03-29T01:01:35;2.73;;;2.17;;
68583;SDS011;55557;49.220;11.150;2023-03-29T01:04:07;3.93;;;2.13;;
68583;SDS011;55557;49.220;11.150;2023-03-29T01:06:44;5.83;;;2.43;;
68583;SDS011;55557;49.220;11.150;2023-03-29T01:09:11;3.73;;;2.47;;
68583;SDS011;55557;49.220;11.150;2023-03-29T01:11:39;4.80;;;2.03;;
68583;SDS011;55557;49.220;11.150;2023-03-29T01:14:09;2.53;;;1.90;;
68583;SDS011;55557;49.220;11.150;2023-03-29T01:16:36;7.50;;;2.33;;
68583;SDS011;55557;49.220;11.150;2023-03-29T01:19:04;2.30;;;1.97;;
68583;SDS011;55557;49.220;11.150;2023-03-29T01:24:43;3.80;;;2.30;;
68583;SDS011;55557;49.220;11.150;2023-03-29T01:26:52;2.73;;;1.60;;
68583;SDS011;55557;49.220;11.150;2023-03-29T01:29:21;2.90;;;2.27;;
68583;SDS011;55557;49.220;11.150;2023-03-29T01:31:51;6.60;;;1.97;;
68583;SDS011;55557;49.220;11.150;2023-03-29T01:34:21;2.13;;;1.63;;
68583;SDS011;55557;49.220;11.150;2023-03-29T01:36:54;2.63;;;1.83;;
68583;SDS011;55557;49.220;11.150;2023-03-29T01:39:24;2.87;;;1.97;;
68583;SDS011;55557;49.220;11.150;2023-03-29T01:42:00;2.60;;;1.90;;
68583;SDS011;55557;49.220;11.150;2023-03-29T01:44:29;3.67;;;1.60;;
68583;SDS011;55557;49.220;11.150;2023-03-29T01:47:17;2.93;;;1.90;;
68583;SDS011;55557;49.220;11.150;2023-03-29T01:52:32;2.53;;;1.80;;
68583;SDS011;55557;49.220;11.150;2023-03-29T01:55:02;3.77;;;1.80;;
68583;SDS011;55557;49.220;11.150;2023-03-29T01:57:29;2.93;;;1.70;;
68583;SDS011;55557;49.220;11.150;2023-03-29T01:59:57;5.73;;;2.10;;
68583;SDS011;55557;49.220;11.150;2023-03-29T02:02:23;1.93;;;1.60;;
68583;SDS011;55557;49.220;11.150;2023-03-29T02:04:52;2.70;;;1.60;;
68583;SDS011;55557;49.220;11.150;2023-03-29T02:07:23;2.43;;;1.80;;
68583;SDS011;55557;49.220;11.150;2023-03-29T02:09:51;2.97;;;2.27;;
68583;SDS011;55557;49.220;11.150;2023-03-29T02:12:17;3.83;;;2.10;;
68583;SDS011;55557;49.220;11.150;2023-03-29T02:14:44;2.87;;;1.93;;
68583;SDS011;55557;49.220;11.150;2023-03-29T02:17:20;3.10;;;1.50;;
68583;SDS011;55557;49.220;11.150;2023-03-29T02:19:47;4.43;;;1.63;;
68583;SDS011;55557;49.220;11.150;2023-03-29T02:22:14;3.00;;;2.00;;
68583;SDS011;55557;49.220;11.150;2023-03-29T02:24:41;1.90;;;1.70;;
68583;SDS011;55557;49.220;11.150;2023-03-29T02:27:09;4.60;;;2.27;;
68583;SDS011;55557;49.220;11.150;2023-03-29T02:29:35;2.43;;;1.63;;
68583;SDS011;55557;49.220;11.150;2023-03-29T02:32:02;3.70;;;1.77;;
68583;SDS011;55557;49.220;11.150;2023-03-29T02:34:33;1.80;;;1.53;;
68583;SDS011;55557;49.220;11.150;2023-03-29T02:37:02;4.07;;;2.10;;
68583;SDS011;55557;49.220;11.150;2023-03-29T02:39:31;5.80;;;1.73;;
68583;SDS011;55557;49.220;11.150;2023-03-29T02:41:58;2.30;;;1.93;;
68583;SDS011;55557;49.220;11.150;2023-03-29T02:44:26;3.13;;;1.83;;
68583;SDS011;55557;49.220;11.150;2023-03-29T02:46:54;3.23;;;2.13;;
68583;SDS011;55557;49.220;11.150;2023-03-29T02:49:21;1.77;;;1.57;;
68583;SDS011;55557;49.220;11.150;2023-03-29T02:51:48;3.07;;;1.60;;
68583;SDS011;55557;49.220;11.150;2023-03-29T02:54:20;3.47;;;1.80;;
68583;SDS011;55557;49.220;11.150;2023-03-29T02:56:57;4.17;;;1.90;;
68583;SDS011;55557;49.220;11.150;2023-03-29T02:59:23;2.77;;;2.03;;
68583;SDS011;55557;49.220;11.150;2023-03-29T03:01:49;4.53;;;2.03;;
68583;SDS011;55557;49.220;11.150;2023-03-29T03:04:16;2.90;;;2.00;;
68583;SDS011;55557;49.220;11.150;2023-03-29T03:06:44;2.07;;;1.87;;
68583;SDS011;55557;49.220;11.150;2023-03-29T03:09:10;2.10;;;1.90;;
68583;SDS011;55557;49.220;11.150;2023-03-29T03:11:36;2.57;;;1.87;;
68583;SDS011;55557;49.220;11.150;2023-03-29T03:14:02;3.00;;;1.90;;
68583;SDS011;55557;49.220;11.150;2023-03-29T03:16:29;3.10;;;2.10;;
68583;SDS011;55557;49.220;11.150;2023-03-29T03:18:55;2.80;;;2.33;;
68583;SDS011;55557;49.220;11.150;2023-03-29T03:21:21;3.20;;;2.00;;
68583;SDS011;55557;49.220;11.150;2023-03-29T03:23:48;3.83;;;1.67;;
68583;SDS011;55557;49.220;11.150;2023-03-29T03:26:17;2.50;;;1.80;;
68583;SDS011;55557;49.220;11.150;2023-03-29T03:28:43;2.40;;;1.70;;
68583;SDS011;55557;49.220;11.150;2023-03-29T03:31:12;5.73;;;2.37;;
68583;SDS011;55557;49.220;11.150;2023-03-29T03:33:39;2.87;;;2.00;;
68583;SDS011;55557;49.220;11.150;2023-03-29T03:36:08;2.40;;;2.17;;
68583;SDS011;55557;49.220;11.150;2023-03-29T03:38:36;3.23;;;2.37;;
68583;SDS011;55557;49.220;11.150;2023-03-29T03:41:02;5.43;;;2.53;;
68583;SDS011;55557;49.220;11.150;2023-03-29T03:43:29;5.07;;;2.07;;
68583;SDS011;55557;49.220;11.150;2023-03-29T03:45:55;3.27;;;2.00;;
68583;SDS011;55557;49.220;11.150;2023-03-29T03:48:21;2.97;;;2.20;;
68583;SDS011;55557;49.220;11.150;2023-03-29T03:50:51;2.30;;;1.87;;
68583;SDS011;55557;49.220;11.150;2023-03-29T03:53:18;5.37;;;2.23;;
68583;SDS011;55557;49.220;11.150;2023-03-29T03:55:47;4.67;;;2.60;;
68583;SDS011;55557;49.220;11.150;2023-03-29T03:58:14;5.13;;;2.47;;
68583;SDS011;55557;49.220;11.150;2023-03-29T04:00:40;3.40;;;2.30;;
68583;SDS011;55557;49.220;11.150;2023-03-29T04:03:06;3.20;;;2.43;;
68583;SDS011;55557;49.220;11.150;2023-03-29T04:05:32;4.07;;;2.53;;
68583;SDS011;55557;49.220;11.150;2023-03-29T04:07:58;5.00;;;2.10;;
68583;SDS011;55557;49.220;11.150;2023-03-29T04:10:24;2.80;;;2.10;;
68583;SDS011;55557;49.220;11.150;2023-03-29T04:12:50;3.73;;;2.30;;
68583;SDS011;55557;49.220;11.150;2023-03-29T04:15:16;6.70;;;2.80;;
68583;SDS011;55557;49.220;11.150;2023-03-29T04:17:44;2.50;;;2.30;;
68583;SDS011;55557;49.220;11.150;2023-03-29T04:20:10;4.17;;;2.87;;
68583;SDS011;55557;49.220;11.150;2023-03-29T04:22:37;3.40;;;2.43;;
68583;SDS011;55557;49.220;11.150;2023-03-29T04:25:04;3.50;;;2.70;;
68583;SDS011;55557;49.220;11.150;2023-03-29T04:27:30;3.90;;;2.47;;
68583;SDS011;55557;49.220;11.150;2023-03-29T04:29:56;3.87;;;2.60;;
68583;SDS011;55557;49.220;11.150;2023-03-29T04:32:22;2.87;;;2.57;;
68583;SDS011;55557;49.220;11.150;2023-03-29T04:34:48;3.93;;;2.43;;
68583;SDS011;55557;49.220;11.150;2023-03-29T04:37:14;3.93;;;2.80;;
68583;SDS011;55557;49.220;11.150;2023-03-29T04:39:46;4.03;;;2.67;;
68583;SDS011;55557;49.220;11.150;2023-03-29T04:42:19;4.13;;;2.57;;
68583;SDS011;55557;49.220;11.150;2023-03-29T04:44:45;2.90;;;2.30;;
68583;SDS011;55557;49.220;11.150;2023-03-29T04:47:11;6.17;;;2.90;;
68583;SDS011;55557;49.220;11.150;2023-03-29T04:49:38;3.40;;;2.63;;
68583;SDS011;55557;49.220;11.150;2023-03-29T04:52:04;3.27;;;2.80;;
68583;SDS011;55557;49.220;11.150;2023-03-29T04:54:30;3.43;;;2.30;;
68583;SDS011;55557;49.220;11.150;2023-03-29T04:56:56;3.90;;;2.63;;
68583;SDS011;55557;49.220;11.150;2023-03-29T04:59:22;5.53;;;4.37;;
68583;SDS011;55557;49.220;11.150;2023-03-29T05:01:48;5.20;;;4.20;;
68583;SDS011;55557;49.220;11.150;2023-03-29T05:04:14;7.03;;;3.87;;
68583;SDS011;55557;49.220;11.150;2023-03-29T05:06:40;7.70;;;3.47;;
68583;SDS011;55557;49.220;11.150;2023-03-29T05:09:06;5.00;;;3.20;;
68583;SDS011;55557;49.220;11.150;2023-03-29T05:11:33;4.83;;;2.73;;
68583;SDS011;55557;49.220;11.150;2023-03-29T05:13:59;5.37;;;3.33;;
68583;SDS011;55557;49.220;11.150;2023-03-29T05:16:30;7.63;;;3.00;;
68583;SDS011;55557;49.220;11.150;2023-03-29T05:18:56;6.23;;;3.27;;
68583;SDS011;55557;49.220;11.150;2023-03-29T05:21:23;4.13;;;2.73;;
68583;SDS011;55557;49.220;11.150;2023-03-29T05:23:58;5.07;;;2.93;;
68583;SDS011;55557;49.220;11.150;2023-03-29T05:26:24;4.43;;;3.40;;
68583;SDS011;55557;49.220;11.150;2023-03-29T05:28:50;3.43;;;2.70;;
68583;SDS011;55557;49.220;11.150;2023-03-29T05:31:16;6.40;;;3.10;;
68583;SDS011;55557;49.220;11.150;2023-03-29T05:33:42;4.23;;;3.17;;
68583;SDS011;55557;49.220;11.150;2023-03-29T05:36:10;3.60;;;3.03;;
68583;SDS011;55557;49.220;11.150;2023-03-29T05:38:38;5.03;;;3.00;;
68583;SDS011;55557;49.220;11.150;2023-03-29T05:41:04;4.77;;;3.13;;
68583;SDS011;55557;49.220;11.150;2023-03-29T05:43:31;4.83;;;3.03;;
68583;SDS011;55557;49.220;11.150;2023-03-29T05:45:57;4.33;;;3.17;;
68583;SDS011;55557;49.220;11.150;2023-03-29T05:48:23;3.97;;;2.97;;
68583;SDS011;55557;49.220;11.150;2023-03-29T05:50:50;4.87;;;3.10;;
68583;SDS011;55557;49.220;11.150;2023-03-29T05:53:17;5.47;;;3.13;;
68583;SDS011;55557;49.220;11.150;2023-03-29T05:55:44;5.03;;;2.97;;
68583;SDS011;55557;49.220;11.150;2023-03-29T05:58:10;3.57;;;2.83;;
68583;SDS011;55557;49.220;11.150;2023-03-29T06:00:37;4.00;;;3.00;;
68583;SDS011;55557;49.220;11.150;2023-03-29T06:03:04;5.18;;;2.90;;
68583;SDS011;55557;49.220;11.150;2023-03-29T06:05:31;5.47;;;2.87;;
68583;SDS011;55557;49.220;11.150;2023-03-29T06:07:57;4.33;;;2.83;;
68583;SDS011;55557;49.220;11.150;2023-03-29T06:10:23;6.63;;;3.77;;
68583;SDS011;55557;49.220;11.150;2023-03-29T06:12:52;5.20;;;3.57;;
68583;SDS011;55557;49.220;11.150;2023-03-29T06:15:19;3.40;;;2.63;;
68583;SDS011;55557;49.220;11.150;2023-03-29T06:17:46;3.37;;;2.83;;
68583;SDS011;55557;49.220;11.150;2023-03-29T06:20:12;4.47;;;3.17;;
68583;SDS011;55557;49.220;11.150;2023-03-29T06:22:39;3.93;;;2.77;;
68583;SDS011;55557;49.220;11.150;2023-03-29T06:25:05;3.33;;;2.50;;
68583;SDS011;55557;49.220;11.150;2023-03-29T06:27:33;8.73;;;3.17;;
68583;SDS011;55557;49.220;11.150;2023-03-29T06:29:59;7.70;;;3.40;;
68583;SDS011;55557;49.220;11.150;2023-03-29T06:32:25;4.97;;;3.40;;
68583;SDS011;55557;49.220;11.150;2023-03-29T06:34:51;3.00;;;2.70;;
68583;SDS011;55557;49.220;11.150;2023-03-29T06:37:18;4.37;;;3.43;;
68583;SDS011;55557;49.220;11.150;2023-03-29T06:39:45;3.80;;;2.93;;
68583;SDS011;55557;49.220;11.150;2023-03-29T06:42:16;4.53;;;3.20;;
68583;SDS011;55557;49.220;11.150;2023-03-29T06:44:42;3.93;;;3.03;;
68583;SDS011;55557;49.220;11.150;2023-03-29T06:47:08;3.90;;;3.00;;
68583;SDS011;55557;49.220;11.150;2023-03-29T06:49:34;3.50;;;3.00;;
68583;SDS011;55557;49.220;11.150;2023-03-29T06:52:00;3.33;;;2.90;;
68583;SDS011;55557;49.220;11.150;2023-03-29T06:54:26;5.87;;;3.03;;
68583;SDS011;55557;49.220;11.150;2023-03-29T06:56:52;3.83;;;2.60;;
68583;SDS011;55557;49.220;11.150;2023-03-29T06:59:18;3.47;;;2.87;;
68583;SDS011;55557;49.220;11.150;2023-03-29T07:01:44;3.53;;;2.80;;
68583;SDS011;55557;49.220;11.150;2023-03-29T07:04:11;3.97;;;2.63;;
68583;SDS011;55557;49.220;11.150;2023-03-29T07:06:37;3.23;;;2.77;;
68583;SDS011;55557;49.220;11.150;2023-03-29T07:09:04;4.83;;;2.90;;
68583;SDS011;55557;49.220;11.150;2023-03-29T07:11:30;3.23;;;2.33;;
68583;SDS011;55557;49.220;11.150;2023-03-29T07:13:58;3.30;;;2.50;;
68583;SDS011;55557;49.220;11.150;2023-03-29T07:16:23;3.77;;;2.60;;
68583;SDS011;55557;49.220;11.150;2023-03-29T07:18:52;2.93;;;2.57;;
68583;SDS011;55557;49.220;11.150;2023-03-29T07:21:19;3.50;;;2.50;;
68583;SDS011;55557;49.220;11.150;2023-03-29T07:23:45;5.00;;;2.60;;
68583;SDS011;55557;49.220;11.150;2023-03-29T07:26:11;2.90;;;2.33;;
68583;SDS011;55557;49.220;11.150;2023-03-29T07:28:37;4.87;;;2.40;;
68583;SDS011;55557;49.220;11.150;2023-03-29T07:31:04;2.73;;;2.53;;
68583;SDS011;55557;49.220;11.150;2023-03-29T07:33:30;3.37;;;2.67;;
68583;SDS011;55557;49.220;11.150;2023-03-29T07:35:56;5.40;;;3.20;;
68583;SDS011;55557;49.220;11.150;2023-03-29T07:38:23;3.47;;;2.50;;
68583;SDS011;55557;49.220;11.150;2023-03-29T07:40:49;3.70;;;2.80;;
68583;SDS011;55557;49.220;11.150;2023-03-29T07:43:15;5.03;;;3.20;;
68583;SDS011;55557;49.220;11.150;2023-03-29T07:45:42;4.10;;;2.63;;
68583;SDS011;55557;49.220;11.150;2023-03-29T07:48:08;3.40;;;2.67;;
68583;SDS011;55557;49.220;11.150;2023-03-29T07:50:34;4.83;;;2.93;;
68583;SDS011;55557;49.220;11.150;2023-03-29T07:53:00;4.80;;;3.23;;
68583;SDS011;55557;49.220;11.150;2023-03-29T07:55:27;3.30;;;2.43;;
68583;SDS011;55557;49.220;11.150;2023-03-29T07:57:53;3.40;;;2.77;;
68583;SDS011;55557;49.220;11.150;2023-03-29T08:00:19;3.20;;;2.40;;
68583;SDS011;55557;49.220;11.150;2023-03-29T08:02:46;4.23;;;2.93;;
68583;SDS011;55557;49.220;11.150;2023-03-29T08:05:16;3.67;;;2.53;;
68583;SDS011;55557;49.220;11.150;2023-03-29T08:07:43;6.97;;;2.43;;
68583;SDS011;55557;49.220;11.150;2023-03-29T08:10:10;3.83;;;2.70;;
68583;SDS011;55557;49.220;11.150;2023-03-29T08:12:37;3.83;;;2.27;;
68583;SDS011;55557;49.220;11.150;2023-03-29T08:15:03;3.20;;;2.10;;
68583;SDS011;55557;49.220;11.150;2023-03-29T08:17:30;2.30;;;2.00;;
68583;SDS011;55557;49.220;11.150;2023-03-29T08:19:55;3.10;;;2.40;;
68583;SDS011;55557;49.220;11.150;2023-03-29T08:22:21;2.37;;;2.13;;
68583;SDS011;55557;49.220;11.150;2023-03-29T08:24:47;2.87;;;2.20;;
68583;SDS011;55557;49.220;11.150;2023-03-29T08:27:13;5.27;;;2.50;;
68583;SDS011;55557;49.220;11.150;2023-03-29T08:29:40;4.67;;;2.30;;
68583;SDS011;55557;49.220;11.150;2023-03-29T08:32:06;2.80;;;2.20;;
68583;SDS011;55557;49.220;11.150;2023-03-29T08:34:32;2.67;;;2.17;;
68583;SDS011;55557;49.220;11.150;2023-03-29T08:36:59;3.30;;;2.20;;
68583;SDS011;55557;49.220;11.150;2023-03-29T08:39:25;4.10;;;2.50;;
68583;SDS011;55557;49.220;11.150;2023-03-29T08:49:16;13.17;;;2.27;;
68583;SDS011;55557;49.220;11.150;2023-03-29T08:51:51;7.03;;;2.00;;
68583;SDS011;55557;49.220;11.150;2023-03-29T08:54:20;6.47;;;1.83;;
68583;SDS011;55557;49.220;11.150;2023-03-29T08:56:49;4.03;;;1.87;;
68583;SDS011;55557;49.220;11.150;2023-03-29T08:59:18;5.50;;;1.83;;
68583;SDS011;55557;49.220;11.150;2023-03-29T09:01:44;3.63;;;2.03;;
68583;SDS011;55557;49.220;11.150;2023-03-29T09:04:15;2.53;;;1.93;;
68583;SDS011;55557;49.220;11.150;2023-03-29T09:06:42;2.27;;;1.80;;
68583;SDS011;55557;49.220;11.150;2023-03-29T09:09:11;3.43;;;1.53;;
68583;SDS011;55557;49.220;11.150;2023-03-29T09:22:00;2.33;;;1.67;;
68583;SDS011;55557;49.220;11.150;2023-03-29T09:24:40;2.93;;;1.77;;
68583;SDS011;55557;49.220;11.150;2023-03-29T09:27:44;6.83;;;2.30;;
68583;SDS011;55557;49.220;11.150;2023-03-29T09:32:53;2.70;;;1.90;;
68583;SDS011;55557;49.220;11.150;2023-03-29T09:35:37;3.17;;;1.60;;
68583;SDS011;55557;49.220;11.150;2023-03-29T09:38:07;2.67;;;1.90;;
68583;SDS011;55557;49.220;11.150;2023-03-29T09:40:38;2.20;;;1.83;;
68583;SDS011;55557;49.220;11.150;2023-03-29T09:43:08;3.70;;;2.10;;
68583;SDS011;55557;49.220;11.150;2023-03-29T09:45:37;2.90;;;1.50;;
68583;SDS011;55557;49.220;11.150;2023-03-29T09:48:13;4.37;;;2.03;;
68583;SDS011;55557;49.220;11.150;2023-03-29T09:50:40;4.57;;;1.87;;
68583;SDS011;55557;49.220;11.150;2023-03-29T09:53:07;3.00;;;1.67;;
68583;SDS011;55557;49.220;11.150;2023-03-29T09:55:33;5.17;;;2.63;;
68583;SDS011;55557;49.220;11.150;2023-03-29T09:58:01;3.17;;;1.87;;
68583;SDS011;55557;49.220;11.150;2023-03-29T10:00:32;4.23;;;2.30;;
68583;SDS011;55557;49.220;11.150;2023-03-29T10:02:57;4.53;;;2.30;;
68583;SDS011;55557;49.220;11.150;2023-03-29T10:05:24;4.87;;;2.10;;
68583;SDS011;55557;49.220;11.150;2023-03-29T10:07:51;2.87;;;2.10;;
68583;SDS011;55557;49.220;11.150;2023-03-29T10:10:36;4.63;;;2.40;;
68583;SDS011;55557;49.220;11.150;2023-03-29T10:13:14;4.27;;;2.00;;
68583;SDS011;55557;49.220;11.150;2023-03-29T10:16:04;4.43;;;2.50;;
68583;SDS011;55557;49.220;11.150;2023-03-29T10:18:32;2.43;;;2.07;;
68583;SDS011;55557;49.220;11.150;2023-03-29T10:20:59;4.50;;;2.53;;
68583;SDS011;55557;49.220;11.150;2023-03-29T10:23:33;3.33;;;2.10;;
68583;SDS011;55557;49.220;11.150;2023-03-29T10:26:02;2.53;;;1.80;;
68583;SDS011;55557;49.220;11.150;2023-03-29T10:28:29;3.67;;;2.47;;
68583;SDS011;55557;49.220;11.150;2023-03-29T10:30:56;3.40;;;2.37;;
68583;SDS011;55557;49.220;11.150;2023-03-29T10:33:23;4.80;;;2.10;;
68583;SDS011;55557;49.220;11.150;2023-03-29T10:35:53;4.10;;;1.87;;
68583;SDS011;55557;49.220;11.150;2023-03-29T10:38:21;2.40;;;1.73;;
68583;SDS011;55557;49.220;11.150;2023-03-29T10:40:49;4.67;;;1.77;;
68583;SDS011;55557;49.220;11.150;2023-03-29T10:45:42;4.43;;;1.53;;
68583;SDS011;55557;49.220;11.150;2023-03-29T10:48:11;5.30;;;3.90;;
68583;SDS011;55557;49.220;11.150;2023-03-29T10:50:38;4.13;;;3.33;;
68583;SDS011;55557;49.220;11.150;2023-03-29T10:53:26;3.40;;;1.43;;
68583;SDS011;55557;49.220;11.150;2023-03-29T11:01:10;3.07;;;1.80;;
68583;SDS011;55557;49.220;11.150;2023-03-29T11:03:43;2.90;;;1.80;;
68583;SDS011;55557;49.220;11.150;2023-03-29T11:06:19;7.53;;;3.00;;
68583;SDS011;55557;49.220;11.150;2023-03-29T11:11:16;3.83;;;1.60;;
68583;SDS011;55557;49.220;11.150;2023-03-29T11:16:43;6.97;;;2.07;;
68583;SDS011;55557;49.220;11.150;2023-03-29T11:32:13;8.23;;;2.97;;
68583;SDS011;55557;49.220;11.150;2023-03-29T11:37:50;6.03;;;2.40;;
68583;SDS011;55557;49.220;11.150;2023-03-29T11:40:43;6.10;;;1.90;;
68583;SDS011;55557;49.220;11.150;2023-03-29T11:42:43;12.87;;;2.50;;
68583;SDS011;55557;49.220;11.150;2023-03-29T11:45:12;4.70;;;1.57;;
68583;SDS011;55557;49.220;11.150;2023-03-29T11:47:39;6.30;;;2.07;;
68583;SDS011;55557;49.220;11.150;2023-03-29T11:52:35;2.10;;;1.50;;
68583;SDS011;55557;49.220;11.150;2023-03-29T11:55:24;5.23;;;3.33;;
68583;SDS011;55557;49.220;11.150;2023-03-29T11:57:54;5.27;;;1.77;;
68583;SDS011;55557;49.220;11.150;2023-03-29T12:00:22;3.93;;;1.77;;
68583;SDS011;55557;49.220;11.150;2023-03-29T12:03:05;7.23;;;1.93;;
68583;SDS011;55557;49.220;11.150;2023-03-29T12:05:36;2.23;;;1.80;;
68583;SDS011;55557;49.220;11.150;2023-03-29T12:08:12;2.27;;;1.77;;
68583;SDS011;55557;49.220;11.150;2023-03-29T12:10:42;2.23;;;1.63;;
68583;SDS011;55557;49.220;11.150;2023-03-29T12:13:43;1.93;;;1.37;;
68583;SDS011;55557;49.220;11.150;2023-03-29T12:16:08;4.63;;;2.30;;
68583;SDS011;55557;49.220;11.150;2023-03-29T12:18:41;12.10;;;2.43;;
68583;SDS011;55557;49.220;11.150;2023-03-29T12:21:11;5.53;;;2.27;;
68583;SDS011;55557;49.220;11.150;2023-03-29T12:23:39;3.43;;;2.00;;
68583;SDS011;55557;49.220;11.150;2023-03-29T12:28:55;2.70;;;2.30;;
68583;SDS011;55557;49.220;11.150;2023-03-29T12:39:25;5.87;;;2.23;;
68583;SDS011;55557;49.220;11.150;2023-03-29T12:41:52;5.33;;;2.57;;
68583;SDS011;55557;49.220;11.150;2023-03-29T12:44:21;4.73;;;2.60;;
68583;SDS011;55557;49.220;11.150;2023-03-29T12:46:52;4.90;;;2.20;;
68583;SDS011;55557;49.220;11.150;2023-03-29T12:49:22;2.80;;;2.03;;
68583;SDS011;55557;49.220;11.150;2023-03-29T12:51:51;2.20;;;1.70;;
68583;SDS011;55557;49.220;11.150;2023-03-29T12:54:20;4.60;;;1.70;;
68583;SDS011;55557;49.220;11.150;2023-03-29T12:56:54;3.40;;;2.30;;
68583;SDS011;55557;49.220;11.150;2023-03-29T13:02:24;2.10;;;1.50;;
68583;SDS011;55557;49.220;11.150;2023-03-29T13:04:52;3.20;;;1.70;;
68583;SDS011;55557;49.220;11.150;2023-03-29T13:07:27;4.00;;;2.13;;
68583;SDS011;55557;49.220;11.150;2023-03-29T13:15:02;7.73;;;2.03;;
68583;SDS011;55557;49.220;11.150;2023-03-29T13:22:45;7.60;;;2.20;;
68583;SDS011;55557;49.220;11.150;2023-03-29T13:30:41;3.20;;;2.03;;
68583;SDS011;55557;49.220;11.150;2023-03-29T13:38:31;8.57;;;2.17;;
68583;SDS011;55557;49.220;11.150;2023-03-29T13:43:29;6.17;;;2.30;;
68583;SDS011;55557;49.220;11.150;2023-03-29T13:48:25;2.27;;;1.80;;
68583;SDS011;55557;49.220;11.150;2023-03-29T13:50:53;2.97;;;1.40;;
68583;SDS011;55557;49.220;11.150;2023-03-29T13:55:49;4.27;;;2.27;;
68583;SDS011;55557;49.220;11.150;2023-03-29T14:00:49;2.03;;;1.50;;
68583;SDS011;55557;49.220;11.150;2023-03-29T14:03:19;2.97;;;1.47;;
68583;SDS011;55557;49.220;11.150;2023-03-29T14:05:51;2.23;;;1.50;;
68583;SDS011;55557;49.220;11.150;2023-03-29T14:10:52;3.43;;;1.90;;
68583;SDS011;55557;49.220;11.150;2023-03-29T14:13:20;3.67;;;1.60;;
68583;SDS011;55557;49.220;11.150;2023-03-29T14:15:57;4.53;;;1.97;;
68583;SDS011;55557;49.220;11.150;2023-03-29T14:18:26;7.57;;;2.23;;
68583;SDS011;55557;49.220;11.150;2023-03-29T14:20:53;3.03;;;1.50;;
68583;SDS011;55557;49.220;11.150;2023-03-29T14:23:21;2.00;;;1.37;;
68583;SDS011;55557;49.220;11.150;2023-03-29T14:25:47;2.60;;;1.77;;
68583;SDS011;55557;49.220;11.150;2023-03-29T14:30:46;4.27;;;1.50;;
68583;SDS011;55557;49.220;11.150;2023-03-29T14:33:13;2.20;;;1.50;;
68583;SDS011;55557;49.220;11.150;2023-03-29T14:35:39;2.40;;;1.50;;
68583;SDS011;55557;49.220;11.150;2023-03-29T14:38:08;7.17;;;2.20;;
68583;SDS011;55557;49.220;11.150;2023-03-29T14:40:36;4.27;;;1.80;;
68583;SDS011;55557;49.220;11.150;2023-03-29T14:43:03;2.87;;;1.40;;
68583;SDS011;55557;49.220;11.150;2023-03-29T14:45:30;3.97;;;1.70;;
68583;SDS011;55557;49.220;11.150;2023-03-29T14:47:56;2.63;;;1.40;;
68583;SDS011;55557;49.220;11.150;2023-03-29T14:50:25;2.73;;;1.50;;
68583;SDS011;55557;49.220;11.150;2023-03-29T14:52:51;5.47;;;1.30;;
68583;SDS011;55557;49.220;11.150;2023-03-29T14:55:18;4.27;;;1.77;;
68583;SDS011;55557;49.220;11.150;2023-03-29T14:57:47;2.43;;;1.73;;
68583;SDS011;55557;49.220;11.150;2023-03-29T15:03:13;4.60;;;2.00;;
68583;SDS011;55557;49.220;11.150;2023-03-29T15:05:40;2.97;;;1.57;;
68583;SDS011;55557;49.220;11.150;2023-03-29T15:08:11;2.47;;;1.40;;
68583;SDS011;55557;49.220;11.150;2023-03-29T15:10:38;4.60;;;1.33;;
68583;SDS011;55557;49.220;11.150;2023-03-29T15:13:06;2.17;;;1.47;;
68583;SDS011;55557;49.220;11.150;2023-03-29T15:15:33;3.30;;;1.23;;
68583;SDS011;55557;49.220;11.150;2023-03-29T15:18:00;2.27;;;1.47;;
68583;SDS011;55557;49.220;11.150;2023-03-29T15:20:28;1.70;;;1.30;;
68583;SDS011;55557;49.220;11.150;2023-03-29T15:23:08;2.73;;;1.63;;
68583;SDS011;55557;49.220;11.150;2023-03-29T15:25:57;4.37;;;1.70;;
68583;SDS011;55557;49.220;11.150;2023-03-29T15:30:56;3.70;;;1.93;;
68583;SDS011;55557;49.220;11.150;2023-03-29T15:33:22;2.87;;;1.50;;
68583;SDS011;55557;49.220;11.150;2023-03-29T15:35:50;1.37;;;1.10;;
68583;SDS011;55557;49.220;11.150;2023-03-29T15:38:16;3.50;;;2.20;;
68583;SDS011;55557;49.220;11.150;2023-03-29T15:40:43;5.63;;;1.83;;
68583;SDS011;55557;49.220;11.150;2023-03-29T15:43:09;2.80;;;1.67;;
68583;SDS011;55557;49.220;11.150;2023-03-29T15:45:35;2.90;;;1.60;;
68583;SDS011;55557;49.220;11.150;2023-03-29T15:48:01;4.27;;;1.97;;
68583;SDS011;55557;49.220;11.150;2023-03-29T15:50:29;2.10;;;1.57;;
68583;SDS011;55557;49.220;11.150;2023-03-29T15:52:55;4.73;;;1.50;;
68583;SDS011;55557;49.220;11.150;2023-03-29T15:55:24;3.23;;;1.57;;
68583;SDS011;55557;49.220;11.150;2023-03-29T15:58:05;3.10;;;1.40;;
68583;SDS011;55557;49.220;11.150;2023-03-29T16:00:31;2.27;;;1.53;;
68583;SDS011;55557;49.220;11.150;2023-03-29T16:02:57;3.40;;;1.63;;
68583;SDS011;55557;49.220;11.150;2023-03-29T16:05:23;4.30;;;1.57;;
68583;SDS011;55557;49.220;11.150;2023-03-29T16:07:49;3.63;;;1.77;;
68583;SDS011;55557;49.220;11.150;2023-03-29T16:10:15;3.10;;;1.23;;
68583;SDS011;55557;49.220;11.150;2023-03-29T16:12:41;2.23;;;1.07;;
68583;SDS011;55557;49.220;11.150;2023-03-29T16:15:09;2.43;;;1.90;;
68583;SDS011;55557;49.220;11.150;2023-03-29T16:17:37;6.67;;;3.30;;
68583;SDS011;55557;49.220;11.150;2023-03-29T16:20:03;5.10;;;2.40;;
68583;SDS011;55557;49.220;11.150;2023-03-29T16:22:29;4.80;;;2.63;;
68583;SDS011;55557;49.220;11.150;2023-03-29T16:24:56;4.00;;;2.20;;
68583;SDS011;55557;49.220;11.150;2023-03-29T16:27:22;5.60;;;2.67;;
68583;SDS011;55557;49.220;11.150;2023-03-29T16:29:48;7.83;;;2.80;;
68583;SDS011;55557;49.220;11.150;2023-03-29T16:32:14;2.33;;;2.13;;
68583;SDS011;55557;49.220;11.150;2023-03-29T16:34:40;4.57;;;2.20;;